Washington, District of Columbia
Traffic Map
Current Weather Conditions
Washington, District of Columbia
Few Clouds
Few Clouds
28°
Feels Like: 31°
Wind Chill: 28° Ceiling: Unl
Heat Index: 31° Visibility: 10mi
Dew Point: 23° Wind: 0mph
Humidity: 74% Direction: ° ()
Pressure: 30.02in Gusts: 0mph
Raw Report DataKDCA 281252Z 00000KT 10SM FEW025 28/23 A3002 RMK AO2 SLP165 T02780228
Traffic Incident Summary
Active as of:
Severity:
Category:
InformationThere was an issue retrieving the traffic information for this location. Please try a different location or try again shortly.
Advertisements
Track Severe Weather on mobile